^^
Your Local Weather - Clay, NY Station Historical Data
Daily Summary for January 27, 2017 Units:  English    Metric   Both
« Previous Day
Next Day »
Daily Weekly Monthly Yearly Custom
  High: Low: Average:
Temperature: 36.3 °F 32.0 °F 34.1 °F
Dew Point: 30.6 °F 21.6 °F 24.3 °F
Humidity: 83% 57% 67%
Wind Speed: 8.0mph 3.0mph 5.5mph
Wind Gust: 24.0mph - -
Wind- - West
Pressure: 29.58 in 29.49 in -
Precipitation: 0.00 in    
Historical Graphs
 
 
Tabular Data for January 27, 2017
Time Temperature Dew Point Pressure Wind Wind Speed Wind Gust Humidity Rainfall Rate (Hourly) solar
00:04 36.2 °F 30.6 °F 29.49 in WNW 5.0 mph 7.0 mph 80% 0.00 in 0 W/m2
00:10 36.3 °F 30.4 °F 29.49 in WNW 5.0 mph 5.0 mph 79% 0.00 in 0 W/m2
00:16 36.2 °F 30.3 °F 29.49 in WNW 4.0 mph 9.0 mph 79% 0.00 in 0 W/m2
00:22 36.3 °F 30.4 °F 29.49 in WNW 5.0 mph 6.0 mph 79% 0.00 in 0 W/m2
00:28 36.2 °F 30.3 °F 29.49 in NW 4.0 mph 6.0 mph 79% 0.00 in 0 W/m2
00:34 36.2 °F 30.0 °F 29.49 in WNW 6.0 mph 8.0 mph 78% 0.00 in 0 W/m2
00:40 36.3 °F 30.1 °F 29.49 in West 6.0 mph 9.0 mph 78% 0.00 in 0 W/m2
00:46 36.3 °F 30.1 °F 29.49 in West 5.0 mph 9.0 mph 78% 0.00 in 0 W/m2
00:55 36.2 °F 30.0 °F 29.49 in West 5.0 mph 6.0 mph 78% 0.00 in 0 W/m2
01:02 36.2 °F 30.0 °F 29.50 in West 5.0 mph 6.0 mph 78% 0.00 in 0 W/m2
01:08 36.1 °F 29.9 °F 29.50 in WSW 6.0 mph 7.0 mph 78% 0.00 in 0 W/m2
01:18 35.5 °F 30.2 °F 29.50 in West 4.0 mph 10.0 mph 81% 0.00 in 0 W/m2
01:24 35.2 °F 30.3 °F 29.50 in WNW 5.0 mph 8.0 mph 82% 0.00 in 0 W/m2
01:30 35.1 °F 30.2 °F 29.50 in SW 5.0 mph 5.0 mph 82% 0.00 in 0 W/m2
01:35 35.1 °F 30.2 °F 29.50 in West 4.0 mph 7.0 mph 82% 0.00 in 0 W/m2
01:42 35.3 °F 30.1 °F 29.50 in West 4.0 mph 4.0 mph 81% 0.00 in 0 W/m2
01:48 35.6 °F 30.0 °F 29.50 in WSW 5.0 mph 11.0 mph 80% 0.00 in 0 W/m2
01:54 35.8 °F 29.9 °F 29.51 in West 5.0 mph 5.0 mph 79% 0.00 in 0 W/m2
02:00 35.8 °F 29.6 °F 29.51 in West 4.0 mph 8.0 mph 78% 0.00 in 0 W/m2
02:06 36.0 °F 29.8 °F 29.52 in WNW 6.0 mph 12.0 mph 78% 0.00 in 0 W/m2
02:12 35.9 °F 29.4 °F 29.52 in WNW 5.0 mph 8.0 mph 77% 0.00 in 0 W/m2
02:18 35.9 °F 29.4 °F 29.52 in West 4.0 mph 8.0 mph 77% 0.00 in 0 W/m2
02:24 36.0 °F 29.5 °F 29.52 in SW 5.0 mph 7.0 mph 77% 0.00 in 0 W/m2
02:30 36.0 °F 29.2 °F 29.52 in NW 6.0 mph 6.0 mph 76% 0.00 in 0 W/m2
02:36 35.9 °F 29.1 °F 29.52 in West 6.0 mph 9.0 mph 76% 0.00 in 0 W/m2
02:42 35.9 °F 28.7 °F 29.52 in West 5.0 mph 7.0 mph 75% 0.00 in 0 W/m2
02:48 35.9 °F 28.7 °F 29.52 in West 6.0 mph 7.0 mph 75% 0.00 in 0 W/m2
02:54 35.7 °F 28.6 °F 29.52 in WSW 6.0 mph 10.0 mph 75% 0.00 in 0 W/m2
03:00 35.1 °F 29.2 °F 29.53 in WNW 6.0 mph 11.0 mph 79% 0.00 in 0 W/m2
03:06 33.3 °F 28.4 °F 29.53 in West 7.0 mph 14.0 mph 82% 0.00 in 0 W/m2
03:12 32.9 °F 28.3 °F 29.53 in WSW 7.0 mph 13.0 mph 83% 0.00 in 0 W/m2
03:18 33.7 °F 27.9 °F 29.52 in WSW 8.0 mph 13.0 mph 79% 0.00 in 0 W/m2
03:24 33.8 °F 27.7 °F 29.52 in NW 8.0 mph 11.0 mph 78% 0.00 in 0 W/m2
03:30 33.8 °F 27.4 °F 29.52 in West 6.0 mph 8.0 mph 77% 0.00 in 0 W/m2
03:36 34.0 °F 27.2 °F 29.53 in WSW 6.0 mph 24.0 mph 76% 0.00 in 0 W/m2
03:42 34.0 °F 27.2 °F 29.52 in West 6.0 mph 6.0 mph 76% 0.00 in 0 W/m2
03:48 34.0 °F 26.6 °F 29.52 in NNW 5.0 mph 6.0 mph 74% 0.00 in 0 W/m2
03:54 34.3 °F 25.9 °F 29.52 in WSW 6.0 mph 6.0 mph 71% 0.00 in 0 W/m2
04:00 34.5 °F 24.7 °F 29.52 in West 6.0 mph 6.0 mph 67% 0.00 in 0 W/m2
04:06 34.6 °F 24.8 °F 29.52 in West 7.0 mph 8.0 mph 67% 0.00 in 0 W/m2
04:12 34.5 °F 25.0 °F 29.52 in WNW 6.0 mph 6.0 mph 68% 0.00 in 0 W/m2
04:18 34.4 °F 25.6 °F 29.52 in NW 5.0 mph 5.0 mph 70% 0.00 in 0 W/m2
04:24 34.4 °F 25.6 °F 29.52 in West 6.0 mph 7.0 mph 70% 0.00 in 0 W/m2
04:30 34.3 °F 25.9 °F 29.52 in WSW 5.0 mph 6.0 mph 71% 0.00 in 0 W/m2
04:35 34.3 °F 25.9 °F 29.52 in NW 5.0 mph 7.0 mph 71% 0.00 in 0 W/m2
04:42 34.3 °F 25.5 °F 29.52 in West 5.0 mph 9.0 mph 70% 0.00 in 0 W/m2
04:48 34.4 °F 25.6 °F 29.52 in West 7.0 mph 11.0 mph 70% 0.00 in 0 W/m2
04:53 34.3 °F 25.5 °F 29.52 in WNW 8.0 mph 11.0 mph 70% 0.00 in 0 W/m2
05:00 34.4 °F 25.3 °F 29.53 in SW 7.0 mph 7.0 mph 69% 0.00 in 0 W/m2
05:06 34.3 °F 25.9 °F 29.53 in West 6.0 mph 11.0 mph 71% 0.00 in 0 W/m2
05:12 34.1 °F 26.0 °F 29.53 in WNW 7.0 mph 7.0 mph 72% 0.00 in 0 W/m2
05:18 34.1 °F 26.0 °F 29.53 in West 7.0 mph 15.0 mph 72% 0.00 in 0 W/m2
05:24 33.9 °F 26.2 °F 29.53 in West 7.0 mph 10.0 mph 73% 0.00 in 0 W/m2
05:29 33.9 °F 26.2 °F 29.54 in West 6.0 mph 13.0 mph 73% 0.00 in 0 W/m2
05:36 33.9 °F 26.2 °F 29.53 in WNW 8.0 mph 15.0 mph 73% 0.00 in 0 W/m2
05:42 33.8 °F 26.4 °F 29.53 in West 6.0 mph 7.0 mph 74% 0.00 in 0 W/m2
05:48 33.6 °F 26.8 °F 29.54 in SSW 5.0 mph 7.0 mph 76% 0.00 in 0 W/m2
05:53 33.5 °F 26.7 °F 29.54 in WSW 5.0 mph 14.0 mph 76% 0.00 in 0 W/m2
05:59 33.5 °F 26.7 °F 29.54 in WNW 7.0 mph 7.0 mph 76% 0.00 in 0 W/m2
06:06 33.4 °F 27.0 °F 29.55 in WSW 6.0 mph 7.0 mph 77% 0.00 in 0 W/m2
06:12 33.3 °F 26.9 °F 29.55 in West 6.0 mph 6.0 mph 77% 0.00 in 0 W/m2
06:18 33.2 °F 26.5 °F 29.55 in WSW 6.0 mph 6.0 mph 76% 0.00 in 0 W/m2
06:24 33.2 °F 26.5 °F 29.55 in WSW 5.0 mph 7.0 mph 76% 0.00 in 0 W/m2
06:29 33.4 °F 25.7 °F 29.55 in WSW 6.0 mph 14.0 mph 73% 0.00 in 0 W/m2
06:36 33.4 °F 24.7 °F 29.55 in WNW 6.0 mph 14.0 mph 70% 0.00 in 0 W/m2
06:42 33.5 °F 23.0 °F 29.55 in SW 6.0 mph 11.0 mph 65% 0.00 in 0 W/m2
06:48 33.5 °F 22.6 °F 29.56 in SW 7.0 mph 11.0 mph 64% 0.00 in 0 W/m2
06:53 33.4 °F 22.5 °F 29.56 in WNW 7.0 mph 7.0 mph 64% 0.00 in 0 W/m2
07:05 33.2 °F 22.7 °F 29.56 in WNW 5.0 mph 12.0 mph 65% 0.00 in 0 W/m2
07:12 33.1 °F 21.9 °F 29.56 in WSW 6.0 mph 13.0 mph 63% 0.00 in 0 W/m2
07:18 33.2 °F 22.3 °F 29.56 in WSW 7.0 mph 13.0 mph 64% 0.00 in 0 W/m2
07:24 33.2 °F 22.0 °F 29.56 in NW 6.0 mph 10.0 mph 63% 0.00 in 0 W/m2
07:30 33.2 °F 22.0 °F 29.57 in NNW 7.0 mph 9.0 mph 63% 0.00 in 0 W/m2
07:36 33.2 °F 21.6 °F 29.57 in WSW 6.0 mph 9.0 mph 62% 0.00 in 0 W/m2
07:42 33.2 °F 21.6 °F 29.57 in WSW 6.0 mph 11.0 mph 62% 0.00 in 5 W/m2
07:48 33.2 °F 21.6 °F 29.57 in West 7.0 mph 11.0 mph 62% 0.00 in 9 W/m2
07:54 33.2 °F 21.6 °F 29.57 in West 6.0 mph 11.0 mph 62% 0.00 in 12 W/m2
08:08 33.1 °F 21.9 °F 29.57 in West 5.0 mph 14.0 mph 63% 0.00 in 19 W/m2
08:14 33.2 °F 22.0 °F 29.57 in SW 6.0 mph 8.0 mph 63% 0.00 in 21 W/m2
08:20 33.2 °F 22.0 °F 29.57 in WSW 6.0 mph 6.0 mph 63% 0.00 in 28 W/m2
08:26 33.2 °F 22.0 °F 29.57 in WSW 7.0 mph 9.0 mph 63% 0.00 in 32 W/m2
08:32 33.2 °F 22.0 °F 29.57 in West 5.0 mph 6.0 mph 63% 0.00 in 54 W/m2
08:38 33.2 °F 22.0 °F 29.57 in West 6.0 mph 9.0 mph 63% 0.00 in 58 W/m2
08:43 33.3 °F 22.1 °F 29.57 in West 6.0 mph 9.0 mph 63% 0.00 in 58 W/m2
08:50 33.4 °F 22.1 °F 29.57 in West 7.0 mph 7.0 mph 63% 0.00 in 79 W/m2
08:56 33.4 °F 22.1 °F 29.57 in West 6.0 mph 7.0 mph 63% 0.00 in 63 W/m2
09:02 33.3 °F 22.4 °F 29.58 in West 5.0 mph 8.0 mph 64% 0.00 in 69 W/m2
09:08 33.3 °F 22.1 °F 29.57 in West 6.0 mph 8.0 mph 63% 0.00 in 79 W/m2
09:14 33.4 °F 22.1 °F 29.57 in WSW 7.0 mph 10.0 mph 63% 0.00 in 69 W/m2
09:20 33.4 °F 21.8 °F 29.57 in WSW 7.0 mph 11.0 mph 62% 0.00 in 84 W/m2
09:26 33.4 °F 22.1 °F 29.57 in WSW 6.0 mph 11.0 mph 63% 0.00 in 128 W/m2
09:32 33.5 °F 21.9 °F 29.58 in SW 6.0 mph 15.0 mph 62% 0.00 in 109 W/m2
09:38 33.6 °F 22.0 °F 29.57 in WNW 7.0 mph 15.0 mph 62% 0.00 in 113 W/m2
09:44 33.7 °F 21.7 °F 29.57 in WNW 6.0 mph 10.0 mph 61% 0.00 in 130 W/m2
09:50 33.8 °F 22.1 °F 29.57 in West 7.0 mph 7.0 mph 62% 0.00 in 102 W/m2
09:55 33.9 °F 22.2 °F 29.57 in West 5.0 mph 7.0 mph 62% 0.00 in 123 W/m2
10:02 34.0 °F 22.0 °F 29.57 in WSW 6.0 mph 7.0 mph 61% 0.00 in 130 W/m2
10:08 34.1 °F 22.0 °F 29.57 in SW 7.0 mph 13.0 mph 61% 0.00 in 113 W/m2
10:14 34.2 °F 22.5 °F 29.57 in WSW 6.0 mph 7.0 mph 62% 0.00 in 123 W/m2
10:20 34.4 °F 22.3 °F 29.57 in NW 5.0 mph 7.0 mph 61% 0.00 in 93 W/m2
10:26 34.5 °F 22.4 °F 29.57 in West 5.0 mph 7.0 mph 61% 0.00 in 148 W/m2
10:32 34.6 °F 22.5 °F 29.57 in WNW 6.0 mph 11.0 mph 61% 0.00 in 97 W/m2
10:38 34.7 °F 22.2 °F 29.57 in WNW 6.0 mph 11.0 mph 60% 0.00 in 109 W/m2
10:43 34.7 °F 22.6 °F 29.57 in WSW 5.0 mph 8.0 mph 61% 0.00 in 81 W/m2
10:50 34.7 °F 21.8 °F 29.57 in West 6.0 mph 9.0 mph 59% 0.00 in 102 W/m2
10:56 34.8 °F 22.7 °F 29.57 in WSW 5.0 mph 9.0 mph 61% 0.00 in 91 W/m2
11:02 34.9 °F 22.4 °F 29.56 in West 4.0 mph 6.0 mph 60% 0.00 in 76 W/m2
11:08 34.8 °F 22.3 °F 29.56 in West 6.0 mph 9.0 mph 60% 0.00 in 65 W/m2
11:14 34.7 °F 21.8 °F 29.56 in WSW 7.0 mph 14.0 mph 59% 0.00 in 69 W/m2
11:19 34.8 °F 21.9 °F 29.55 in West 6.0 mph 6.0 mph 59% 0.00 in 97 W/m2
11:26 34.9 °F 22.0 °F 29.55 in WNW 5.0 mph 7.0 mph 59% 0.00 in 93 W/m2
11:32 35.0 °F 21.7 °F 29.55 in West 4.0 mph 7.0 mph 58% 0.00 in 81 W/m2
11:38 35.2 °F 21.9 °F 29.55 in WNW 6.0 mph 11.0 mph 58% 0.00 in 111 W/m2
11:44 35.3 °F 22.0 °F 29.55 in West 5.0 mph 7.0 mph 58% 0.00 in 123 W/m2
11:49 35.4 °F 21.7 °F 29.55 in West 5.0 mph 7.0 mph 57% 0.00 in 102 W/m2
11:56 35.4 °F 21.7 °F 29.54 in WNW 6.0 mph 9.0 mph 57% 0.00 in 97 W/m2
12:02 35.5 °F 21.8 °F 29.54 in WNW 6.0 mph 10.0 mph 57% 0.00 in 105 W/m2
12:08 35.2 °F 21.9 °F 29.54 in WSW 7.0 mph 10.0 mph 58% 0.00 in 97 W/m2
12:14 35.2 °F 21.9 °F 29.54 in West 7.0 mph 11.0 mph 58% 0.00 in 109 W/m2
12:20 35.2 °F 21.9 °F 29.53 in West 7.0 mph 15.0 mph 58% 0.00 in 97 W/m2
12:25 35.1 °F 21.8 °F 29.53 in WNW 7.0 mph 15.0 mph 58% 0.00 in 84 W/m2
12:32 35.1 °F 22.6 °F 29.52 in NW 6.0 mph 7.0 mph 60% 0.00 in 100 W/m2
12:38 35.1 °F 22.6 °F 29.52 in West 5.0 mph 14.0 mph 60% 0.00 in 93 W/m2
12:44 35.0 °F 22.1 °F 29.52 in WNW 6.0 mph 7.0 mph 59% 0.00 in 81 W/m2
12:50 35.0 °F 22.5 °F 29.52 in NW 6.0 mph 6.0 mph 60% 0.00 in 76 W/m2
12:55 35.0 °F 22.5 °F 29.52 in WNW 4.0 mph 7.0 mph 60% 0.00 in 72 W/m2
13:02 35.0 °F 22.5 °F 29.52 in NW 5.0 mph 5.0 mph 60% 0.00 in 69 W/m2
13:08 34.9 °F 22.4 °F 29.52 in WNW 6.0 mph 8.0 mph 60% 0.00 in 70 W/m2
13:14 34.9 °F 22.4 °F 29.52 in WSW 5.0 mph 7.0 mph 60% 0.00 in 65 W/m2
13:19 34.9 °F 22.8 °F 29.51 in NW 4.0 mph 4.0 mph 61% 0.00 in 81 W/m2
13:26 35.0 °F 22.5 °F 29.51 in WNW 5.0 mph 7.0 mph 60% 0.00 in 62 W/m2
13:32 35.1 °F 22.2 °F 29.51 in West 5.0 mph 7.0 mph 59% 0.00 in 54 W/m2
13:38 35.1 °F 21.8 °F 29.51 in West 5.0 mph 12.0 mph 58% 0.00 in 47 W/m2
13:44 35.1 °F 21.8 °F 29.51 in West 6.0 mph 7.0 mph 58% 0.00 in 51 W/m2
13:50 35.2 °F 21.9 °F 29.51 in WNW 5.0 mph 5.0 mph 58% 0.00 in 62 W/m2
13:55 35.3 °F 21.6 °F 29.51 in West 6.0 mph 6.0 mph 57% 0.00 in 84 W/m2
14:02 35.4 °F 22.1 °F 29.50 in WNW 6.0 mph 8.0 mph 58% 0.00 in 77 W/m2
14:08 35.4 °F 21.7 °F 29.51 in West 5.0 mph 8.0 mph 57% 0.00 in 67 W/m2
14:14 35.4 °F 21.7 °F 29.51 in West 6.0 mph 15.0 mph 57% 0.00 in 56 W/m2
14:20 35.3 °F 21.6 °F 29.50 in SW 7.0 mph 9.0 mph 57% 0.00 in 46 W/m2
14:26 35.2 °F 22.3 °F 29.50 in West 6.0 mph 9.0 mph 59% 0.00 in 51 W/m2
14:32 35.1 °F 22.2 °F 29.51 in West 5.0 mph 8.0 mph 59% 0.00 in 40 W/m2
14:38 35.0 °F 22.5 °F 29.51 in West 5.0 mph 10.0 mph 60% 0.00 in 58 W/m2
14:44 34.9 °F 22.4 °F 29.51 in West 5.0 mph 5.0 mph 60% 0.00 in 42 W/m2
14:50 34.8 °F 21.9 °F 29.51 in WNW 6.0 mph 7.0 mph 59% 0.00 in 40 W/m2
14:56 34.8 °F 22.3 °F 29.51 in WSW 7.0 mph 7.0 mph 60% 0.00 in 44 W/m2
15:02 34.8 °F 21.9 °F 29.51 in WNW 5.0 mph 6.0 mph 59% 0.00 in 42 W/m2
15:08 34.9 °F 22.4 °F 29.51 in West 5.0 mph 6.0 mph 60% 0.00 in 35 W/m2
15:13 34.9 °F 22.0 °F 29.51 in West 7.0 mph 16.0 mph 59% 0.00 in 47 W/m2
15:20 34.9 °F 22.4 °F 29.51 in West 7.0 mph 7.0 mph 60% 0.00 in 44 W/m2
15:26 34.9 °F 22.8 °F 29.51 in WNW 5.0 mph 7.0 mph 61% 0.00 in 35 W/m2
15:32 34.9 °F 22.4 °F 29.52 in WNW 5.0 mph 5.0 mph 60% 0.00 in 26 W/m2
15:38 34.8 °F 22.3 °F 29.52 in WSW 5.0 mph 16.0 mph 60% 0.00 in 21 W/m2
15:43 34.7 °F 22.6 °F 29.52 in West 5.0 mph 5.0 mph 61% 0.00 in 18 W/m2
15:49 34.7 °F 23.0 °F 29.52 in NW 6.0 mph 6.0 mph 62% 0.00 in 19 W/m2
15:56 34.6 °F 22.9 °F 29.52 in WNW 6.0 mph 6.0 mph 62% 0.00 in 18 W/m2
16:02 34.5 °F 23.2 °F 29.52 in SW 6.0 mph 8.0 mph 63% 0.00 in 16 W/m2
16:08 34.4 °F 23.5 °F 29.52 in WNW 5.0 mph 8.0 mph 64% 0.00 in 12 W/m2
16:14 34.3 °F 23.7 °F 29.52 in WNW 5.0 mph 15.0 mph 65% 0.00 in 11 W/m2
16:20 34.2 °F 24.0 °F 29.52 in WNW 6.0 mph 6.0 mph 66% 0.00 in 11 W/m2
16:26 34.1 °F 23.9 °F 29.52 in West 4.0 mph 6.0 mph 66% 0.00 in 9 W/m2
16:32 34.1 °F 23.9 °F 29.52 in West 4.0 mph 4.0 mph 66% 0.00 in 11 W/m2
16:38 34.2 °F 23.7 °F 29.52 in NW 5.0 mph 10.0 mph 65% 0.00 in 11 W/m2
16:43 34.2 °F 23.7 °F 29.52 in West 6.0 mph 9.0 mph 65% 0.00 in 5 W/m2
16:49 34.2 °F 23.3 °F 29.52 in West 5.0 mph 5.0 mph 64% 0.00 in 5 W/m2
16:56 34.2 °F 23.3 °F 29.52 in West 6.0 mph 6.0 mph 64% 0.00 in 0 W/m2
17:02 34.2 °F 23.3 °F 29.53 in West 5.0 mph 5.0 mph 64% 0.00 in 0 W/m2
17:08 34.2 °F 23.3 °F 29.52 in SW 5.0 mph 9.0 mph 64% 0.00 in 0 W/m2
17:13 34.2 °F 23.3 °F 29.53 in West 6.0 mph 7.0 mph 64% 0.00 in 0 W/m2
17:19 34.2 °F 23.3 °F 29.52 in WNW 6.0 mph 6.0 mph 64% 0.00 in 0 W/m2
17:26 34.3 °F 23.4 °F 29.52 in West 7.0 mph 15.0 mph 64% 0.00 in 0 W/m2
17:32 34.2 °F 23.3 °F 29.53 in West 7.0 mph 7.0 mph 64% 0.00 in 0 W/m2
17:38 34.1 °F 23.2 °F 29.53 in WNW 5.0 mph 11.0 mph 64% 0.00 in 0 W/m2
17:50 34.0 °F 23.5 °F 29.53 in SW 5.0 mph 5.0 mph 65% 0.00 in 0 W/m2
17:56 33.9 °F 24.1 °F 29.53 in WNW 6.0 mph 8.0 mph 67% 0.00 in 0 W/m2
17:58 33.9 °F 24.1 °F 29.53 in NW 5.0 mph 8.0 mph 67% 0.00 in 0 W/m2
18:00 33.8 °F 24.0 °F 29.53 in WNW 5.0 mph 8.0 mph 67% 0.00 in 0 W/m2
18:02 33.7 °F 24.3 °F 29.53 in West 5.0 mph 8.0 mph 68% 0.00 in 0 W/m2
18:08 33.6 °F 24.2 °F 29.53 in WSW 6.0 mph 8.0 mph 68% 0.00 in 0 W/m2
18:13 33.6 °F 24.2 °F 29.53 in WSW 6.0 mph 12.0 mph 68% 0.00 in 0 W/m2
18:19 33.5 °F 24.1 °F 29.54 in SSW 6.0 mph 13.0 mph 68% 0.00 in 0 W/m2
18:26 33.5 °F 24.1 °F 29.54 in WSW 5.0 mph 13.0 mph 68% 0.00 in 0 W/m2
18:32 33.5 °F 24.1 °F 29.54 in West 5.0 mph 6.0 mph 68% 0.00 in 0 W/m2
18:38 33.5 °F 24.1 °F 29.53 in WNW 7.0 mph 8.0 mph 68% 0.00 in 0 W/m2
18:43 33.4 °F 24.3 °F 29.53 in WSW 7.0 mph 8.0 mph 69% 0.00 in 0 W/m2
18:49 33.2 °F 24.5 °F 29.53 in West 5.0 mph 5.0 mph 70% 0.00 in 0 W/m2
18:56 33.1 °F 24.4 °F 29.53 in WNW 4.0 mph 5.0 mph 70% 0.00 in 0 W/m2
19:02 33.2 °F 24.5 °F 29.53 in WSW 4.0 mph 7.0 mph 70% 0.00 in 0 W/m2
19:08 33.1 °F 24.4 °F 29.54 in West 4.0 mph 8.0 mph 70% 0.00 in 0 W/m2
19:14 33.1 °F 24.7 °F 29.54 in West 4.0 mph 5.0 mph 71% 0.00 in 0 W/m2
19:20 33.0 °F 24.6 °F 29.54 in WNW 4.0 mph 7.0 mph 71% 0.00 in 0 W/m2
19:25 33.0 °F 24.6 °F 29.54 in West 5.0 mph 7.0 mph 71% 0.00 in 0 W/m2
19:32 33.0 °F 24.3 °F 29.54 in WSW 4.0 mph 5.0 mph 70% 0.00 in 0 W/m2
19:38 33.0 °F 24.3 °F 29.54 in WSW 4.0 mph 8.0 mph 70% 0.00 in 0 W/m2
19:44 33.0 °F 24.3 °F 29.54 in WNW 4.0 mph 6.0 mph 70% 0.00 in 0 W/m2
19:50 33.0 °F 24.3 °F 29.54 in West 4.0 mph 5.0 mph 70% 0.00 in 0 W/m2
19:55 33.0 °F 24.3 °F 29.54 in West 4.0 mph 10.0 mph 70% 0.00 in 0 W/m2
20:02 33.0 °F 24.3 °F 29.54 in WNW 4.0 mph 5.0 mph 70% 0.00 in 0 W/m2
20:09 33.1 °F 24.0 °F 29.54 in NW 5.0 mph 5.0 mph 69% 0.00 in 0 W/m2
20:16 33.1 °F 24.0 °F 29.55 in WNW 5.0 mph 6.0 mph 69% 0.00 in 0 W/m2
20:22 33.0 °F 23.9 °F 29.55 in West 4.0 mph 5.0 mph 69% 0.00 in 0 W/m2
20:30 33.0 °F 23.9 °F 29.55 in WSW 5.0 mph 8.0 mph 69% 0.00 in 0 W/m2
20:35 33.0 °F 23.9 °F 29.55 in West 5.0 mph 10.0 mph 69% 0.00 in 0 W/m2
20:42 32.9 °F 23.5 °F 29.55 in West 5.0 mph 6.0 mph 68% 0.00 in 0 W/m2
20:48 32.8 °F 23.7 °F 29.55 in West 6.0 mph 6.0 mph 69% 0.00 in 0 W/m2
20:54 32.7 °F 23.6 °F 29.55 in West 5.0 mph 6.0 mph 69% 0.00 in 0 W/m2
21:00 32.8 °F 23.7 °F 29.55 in WNW 5.0 mph 5.0 mph 69% 0.00 in 0 W/m2
21:06 32.8 °F 23.7 °F 29.55 in West 5.0 mph 6.0 mph 69% 0.00 in 0 W/m2
21:12 32.7 °F 23.6 °F 29.55 in WNW 6.0 mph 6.0 mph 69% 0.00 in 0 W/m2
21:18 32.7 °F 23.6 °F 29.55 in West 6.0 mph 8.0 mph 69% 0.00 in 0 W/m2
21:24 32.6 °F 23.9 °F 29.55 in West 6.0 mph 12.0 mph 70% 0.00 in 0 W/m2
21:29 32.5 °F 23.8 °F 29.55 in WSW 7.0 mph 7.0 mph 70% 0.00 in 0 W/m2
21:36 32.4 °F 24.0 °F 29.55 in West 5.0 mph 7.0 mph 71% 0.00 in 0 W/m2
21:42 32.3 °F 23.9 °F 29.55 in NNW 5.0 mph 8.0 mph 71% 0.00 in 0 W/m2
21:48 32.2 °F 24.2 °F 29.56 in West 6.0 mph 11.0 mph 72% 0.00 in 0 W/m2
21:53 32.1 °F 24.4 °F 29.56 in West 6.0 mph 11.0 mph 73% 0.00 in 0 W/m2
22:00 32.0 °F 24.3 °F 29.55 in WNW 5.0 mph 5.0 mph 73% 0.00 in 0 W/m2
22:06 32.0 °F 24.0 °F 29.56 in WNW 6.0 mph 7.0 mph 72% 0.00 in 0 W/m2
22:18 32.1 °F 24.1 °F 29.55 in NW 5.0 mph 9.0 mph 72% 0.00 in 0 W/m2
22:24 32.0 °F 23.7 °F 29.55 in WSW 4.0 mph 5.0 mph 71% 0.00 in 0 W/m2
22:30 32.1 °F 23.4 °F 29.55 in West 4.0 mph 6.0 mph 70% 0.00 in 0 W/m2
22:34 32.0 °F 23.3 °F 29.55 in West 4.0 mph 6.0 mph 70% 0.00 in 0 W/m2
22:39 32.0 °F 23.3 °F 29.55 in WNW 3.0 mph 4.0 mph 70% 0.00 in 0 W/m2
22:46 32.1 °F 23.1 °F 29.55 in WSW 4.0 mph 9.0 mph 69% 0.00 in 0 W/m2
22:52 32.1 °F 23.1 °F 29.55 in WSW 5.0 mph 9.0 mph 69% 0.00 in 0 W/m2
22:58 32.2 °F 22.8 °F 29.55 in WNW 4.0 mph 9.0 mph 68% 0.00 in 0 W/m2
23:04 32.2 °F 22.8 °F 29.55 in WNW 4.0 mph 4.0 mph 68% 0.00 in 0 W/m2
23:09 32.3 °F 22.6 °F 29.55 in West 4.0 mph 6.0 mph 67% 0.00 in 0 W/m2
23:16 32.4 °F 22.7 °F 29.55 in WNW 5.0 mph 6.0 mph 67% 0.00 in 0 W/m2
23:22 32.4 °F 22.7 °F 29.55 in WSW 5.0 mph 8.0 mph 67% 0.00 in 0 W/m2
23:28 32.4 °F 22.7 °F 29.55 in West 5.0 mph 10.0 mph 67% 0.00 in 0 W/m2
23:34 32.3 °F 22.6 °F 29.55 in WNW 5.0 mph 5.0 mph 67% 0.00 in 0 W/m2
23:40 32.3 °F 22.6 °F 29.55 in WNW 4.0 mph 4.0 mph 67% 0.00 in 0 W/m2
23:45 32.2 °F 22.8 °F 29.55 in WNW 4.0 mph 6.0 mph 68% 0.00 in 0 W/m2
23:52 32.1 °F 22.7 °F 29.55 in SSW 4.0 mph 4.0 mph 68% 0.00 in 0 W/m2
23:58 32.0 °F 22.6 °F 29.55 in WSW 4.0 mph 4.0 mph 68% 0.00 in 0 W/m2
Country Meadow, Clay, NY, USA
Compliments of Weather Underground - 2 mb